sensor_id;sensor_type;location;lat;lon;timestamp;pressure;altitude;pressure_sealevel;temperature;humidity
67517;BME280;68821;59.134;37.894;2023-11-18T00:00:34;100934.31;;;-5.63;77.13
67517;BME280;68821;59.134;37.894;2023-11-18T00:03:00;100930.34;;;-5.61;76.82
67517;BME280;68821;59.134;37.894;2023-11-18T00:05:26;100927.84;;;-5.61;76.11
67517;BME280;68821;59.134;37.894;2023-11-18T00:07:53;100929.00;;;-5.57;76.22
67517;BME280;68821;59.134;37.894;2023-11-18T00:10:19;100929.41;;;-5.53;77.33
67517;BME280;68821;59.134;37.894;2023-11-18T00:12:45;100923.19;;;-5.48;76.25
67517;BME280;68821;59.134;37.894;2023-11-18T00:15:12;100931.72;;;-5.46;76.52
67517;BME280;68821;59.134;37.894;2023-11-18T00:17:38;100932.31;;;-5.48;76.67
67517;BME280;68821;59.134;37.894;2023-11-18T00:20:05;100938.81;;;-5.50;76.58
67517;BME280;68821;59.134;37.894;2023-11-18T00:22:38;100930.28;;;-5.52;76.86
67517;BME280;68821;59.134;37.894;2023-11-18T00:25:05;100933.53;;;-5.53;76.03
67517;BME280;68821;59.134;37.894;2023-11-18T00:27:33;100923.13;;;-5.58;76.79
67517;BME280;68821;59.134;37.894;2023-11-18T00:30:06;100924.69;;;-5.50;76.30
67517;BME280;68821;59.134;37.894;2023-11-18T00:32:34;100918.19;;;-5.48;76.80
67517;BME280;68821;59.134;37.894;2023-11-18T00:35:01;100924.22;;;-5.46;76.91
67517;BME280;68821;59.134;37.894;2023-11-18T00:37:30;100923.19;;;-5.48;76.72
67517;BME280;68821;59.134;37.894;2023-11-18T00:39:57;100916.25;;;-5.50;76.32
67517;BME280;68821;59.134;37.894;2023-11-18T00:42:23;100924.69;;;-5.50;76.29
67517;BME280;68821;59.134;37.894;2023-11-18T00:44:49;100914.78;;;-5.48;76.42
67517;BME280;68821;59.134;37.894;2023-11-18T00:47:15;100919.59;;;-5.41;76.88
67517;BME280;68821;59.134;37.894;2023-11-18T00:49:41;100919.38;;;-5.34;77.14
67517;BME280;68821;59.134;37.894;2023-11-18T00:52:07;100923.81;;;-5.31;76.75
67517;BME280;68821;59.134;37.894;2023-11-18T00:54:34;100919.94;;;-5.28;76.94
67517;BME280;68821;59.134;37.894;2023-11-18T00:57:01;100917.72;;;-5.24;77.02
67517;BME280;68821;59.134;37.894;2023-11-18T00:59:27;100921.09;;;-5.24;76.62
67517;BME280;68821;59.134;37.894;2023-11-18T01:01:53;100919.75;;;-5.20;76.45
67517;BME280;68821;59.134;37.894;2023-11-18T01:04:19;100923.41;;;-5.17;76.87
67517;BME280;68821;59.134;37.894;2023-11-18T01:06:45;100925.75;;;-5.18;76.48
67517;BME280;68821;59.134;37.894;2023-11-18T01:09:11;100918.88;;;-5.21;77.35
67517;BME280;68821;59.134;37.894;2023-11-18T01:11:37;100920.91;;;-5.17;76.50
67517;BME280;68821;59.134;37.894;2023-11-18T01:14:03;100913.84;;;-5.21;77.02
67517;BME280;68821;59.134;37.894;2023-11-18T01:16:30;100928.53;;;-5.15;76.63
67517;BME280;68821;59.134;37.894;2023-11-18T01:18:56;100923.25;;;-5.18;76.98
67517;BME280;68821;59.134;37.894;2023-11-18T01:21:22;100922.25;;;-5.20;76.56
67517;BME280;68821;59.134;37.894;2023-11-18T01:23:48;100923.59;;;-5.24;76.69
67517;BME280;68821;59.134;37.894;2023-11-18T01:26:14;100919.19;;;-5.27;76.94
67517;BME280;68821;59.134;37.894;2023-11-18T01:28:41;100922.44;;;-5.28;77.17
67517;BME280;68821;59.134;37.894;2023-11-18T01:31:09;100916.56;;;-5.28;77.02
67517;BME280;68821;59.134;37.894;2023-11-18T01:33:39;100913.66;;;-5.33;77.10
67517;BME280;68821;59.134;37.894;2023-11-18T01:36:07;100911.28;;;-5.31;76.41
67517;BME280;68821;59.134;37.894;2023-11-18T01:38:34;100912.41;;;-5.28;77.36
67517;BME280;68821;59.134;37.894;2023-11-18T01:41:00;100915.19;;;-5.24;76.56
67517;BME280;68821;59.134;37.894;2023-11-18T01:43:26;100922.25;;;-5.20;76.92
67517;BME280;68821;59.134;37.894;2023-11-18T01:45:52;100923.41;;;-5.17;76.82
67517;BME280;68821;59.134;37.894;2023-11-18T01:48:20;100923.41;;;-5.17;76.68
67517;BME280;68821;59.134;37.894;2023-11-18T01:50:48;100925.00;;;-5.17;76.97
67517;BME280;68821;59.134;37.894;2023-11-18T01:53:15;100925.91;;;-5.17;76.80
67517;BME280;68821;59.134;37.894;2023-11-18T01:55:41;100928.28;;;-5.18;76.66
67517;BME280;68821;59.134;37.894;2023-11-18T01:58:08;100920.47;;;-5.21;76.91
67517;BME280;68821;59.134;37.894;2023-11-18T02:00:37;100913.72;;;-5.22;76.97
67517;BME280;68821;59.134;37.894;2023-11-18T02:03:05;100923.88;;;-5.21;76.82
67517;BME280;68821;59.134;37.894;2023-11-18T02:05:32;100917.97;;;-5.21;76.62
67517;BME280;68821;59.134;37.894;2023-11-18T02:08:00;100903.94;;;-5.19;77.09
67517;BME280;68821;59.134;37.894;2023-11-18T02:10:27;100907.59;;;-5.16;77.28
67517;BME280;68821;59.134;37.894;2023-11-18T02:13:18;100906.50;;;-5.09;77.49
67517;BME280;68821;59.134;37.894;2023-11-18T02:15:47;100904.13;;;-5.08;76.84
67517;BME280;68821;59.134;37.894;2023-11-18T02:18:14;100900.91;;;-5.07;76.97
67517;BME280;68821;59.134;37.894;2023-11-18T02:20:40;100895.00;;;-5.07;76.83
67517;BME280;68821;59.134;37.894;2023-11-18T02:23:08;100892.09;;;-5.12;76.97
67517;BME280;68821;59.134;37.894;2023-11-18T02:25:47;100897.44;;;-5.17;76.51
67517;BME280;68821;59.134;37.894;2023-11-18T02:28:13;100899.22;;;-5.16;77.11
67517;BME280;68821;59.134;37.894;2023-11-18T02:30:41;100887.84;;;-5.13;77.15
67517;BME280;68821;59.134;37.894;2023-11-18T02:33:18;100891.47;;;-5.09;77.01
67517;BME280;68821;59.134;37.894;2023-11-18T02:35:53;100899.13;;;-5.08;77.28
67517;BME280;68821;59.134;37.894;2023-11-18T02:38:31;100891.34;;;-5.11;76.63
67517;BME280;68821;59.134;37.894;2023-11-18T02:41:06;100883.56;;;-5.14;76.75
67517;BME280;68821;59.134;37.894;2023-11-18T02:43:36;100889.59;;;-5.12;77.23
67517;BME280;68821;59.134;37.894;2023-11-18T02:46:06;100882.94;;;-5.11;77.14
67517;BME280;68821;59.134;37.894;2023-11-18T02:48:34;100881.44;;;-5.09;76.87
67517;BME280;68821;59.134;37.894;2023-11-18T02:51:04;100868.03;;;-5.10;77.32
67517;BME280;68821;59.134;37.894;2023-11-18T02:53:30;100874.28;;;-5.15;76.87
67517;BME280;68821;59.134;37.894;2023-11-18T02:55:56;100881.47;;;-5.28;76.51
67517;BME280;68821;59.134;37.894;2023-11-18T02:58:31;100870.38;;;-5.40;76.50
67517;BME280;68821;59.134;37.894;2023-11-18T03:00:59;100875.47;;;-5.49;76.88
67517;BME280;68821;59.134;37.894;2023-11-18T03:03:26;100876.53;;;-5.56;77.10
67517;BME280;68821;59.134;37.894;2023-11-18T03:05:54;100880.00;;;-5.64;76.91
67517;BME280;68821;59.134;37.894;2023-11-18T03:08:20;100876.19;;;-5.69;77.30
67517;BME280;68821;59.134;37.894;2023-11-18T03:10:47;100861.84;;;-5.80;76.68
67517;BME280;68821;59.134;37.894;2023-11-18T03:13:13;100879.94;;;-5.83;76.69
67517;BME280;68821;59.134;37.894;2023-11-18T03:15:39;100870.28;;;-5.89;77.40
67517;BME280;68821;59.134;37.894;2023-11-18T03:18:06;100875.63;;;-5.94;76.73
67517;BME280;68821;59.134;37.894;2023-11-18T03:20:33;100867.72;;;-5.99;77.45
67517;BME280;68821;59.134;37.894;2023-11-18T03:23:00;100865.81;;;-6.01;77.36
67517;BME280;68821;59.134;37.894;2023-11-18T03:25:29;100870.69;;;-6.03;76.89
67517;BME280;68821;59.134;37.894;2023-11-18T03:27:55;100871.56;;;-6.02;77.78
67517;BME280;68821;59.134;37.894;2023-11-18T03:30:21;100872.19;;;-6.05;77.81
67517;BME280;68821;59.134;37.894;2023-11-18T03:32:48;100880.56;;;-6.04;77.63
67517;BME280;68821;59.134;37.894;2023-11-18T03:35:14;100882.19;;;-6.05;77.22
67517;BME280;68821;59.134;37.894;2023-11-18T03:37:41;100888.78;;;-6.05;76.31
67517;BME280;68821;59.134;37.894;2023-11-18T03:40:11;100887.06;;;-6.07;77.14
67517;BME280;68821;59.134;37.894;2023-11-18T03:42:39;100877.34;;;-6.12;77.66
67517;BME280;68821;59.134;37.894;2023-11-18T03:45:06;100874.84;;;-6.12;77.41
67517;BME280;68821;59.134;37.894;2023-11-18T03:47:32;100883.22;;;-6.12;76.81
67517;BME280;68821;59.134;37.894;2023-11-18T03:49:59;100881.50;;;-6.13;76.66
67517;BME280;68821;59.134;37.894;2023-11-18T03:52:25;100884.00;;;-6.13;76.84
67517;BME280;68821;59.134;37.894;2023-11-18T03:54:53;100885.72;;;-6.12;77.12
67517;BME280;68821;59.134;37.894;2023-11-18T03:57:21;100886.50;;;-6.13;76.53
67517;BME280;68821;59.134;37.894;2023-11-18T03:59:47;100880.06;;;-6.19;76.99
67517;BME280;68821;59.134;37.894;2023-11-18T04:02:13;100871.66;;;-6.20;77.49
67517;BME280;68821;59.134;37.894;2023-11-18T04:04:39;100876.78;;;-6.18;77.16
67517;BME280;68821;59.134;37.894;2023-11-18T04:07:05;100881.19;;;-6.16;76.68
67517;BME280;68821;59.134;37.894;2023-11-18T04:09:32;100860.97;;;-6.28;76.91
67517;BME280;68821;59.134;37.894;2023-11-18T04:11:58;100874.19;;;-6.29;76.46
67517;BME280;68821;59.134;37.894;2023-11-18T04:14:24;100881.56;;;-6.30;76.23
67517;BME280;68821;59.134;37.894;2023-11-18T04:16:51;100871.88;;;-6.36;76.02
67517;BME280;68821;59.134;37.894;2023-11-18T04:19:18;100880.56;;;-6.41;75.97
67517;BME280;68821;59.134;37.894;2023-11-18T04:21:44;100871.63;;;-6.48;76.26
67517;BME280;68821;59.134;37.894;2023-11-18T04:24:14;100876.78;;;-6.46;77.36
67517;BME280;68821;59.134;37.894;2023-11-18T04:26:41;100884.28;;;-6.46;76.14
67517;BME280;68821;59.134;37.894;2023-11-18T04:29:07;100882.25;;;-6.50;76.44
67517;BME280;68821;59.134;37.894;2023-11-18T04:31:33;100867.53;;;-6.56;77.15
67517;BME280;68821;59.134;37.894;2023-11-18T04:34:03;100873.28;;;-6.57;76.34
67517;BME280;68821;59.134;37.894;2023-11-18T04:36:32;100868.88;;;-6.59;76.43
67517;BME280;68821;59.134;37.894;2023-11-18T04:38:58;100868.47;;;-6.64;77.00
67517;BME280;68821;59.134;37.894;2023-11-18T04:41:24;100867.44;;;-6.66;75.99
67517;BME280;68821;59.134;37.894;2023-11-18T04:43:51;100861.72;;;-6.74;76.73
67517;BME280;68821;59.134;37.894;2023-11-18T04:46:17;100870.41;;;-6.79;76.83
67517;BME280;68821;59.134;37.894;2023-11-18T04:48:45;100875.13;;;-6.82;76.07
67517;BME280;68821;59.134;37.894;2023-11-18T04:51:11;100885.88;;;-6.83;77.03
67517;BME280;68821;59.134;37.894;2023-11-18T04:53:38;100884.25;;;-6.82;76.22
67517;BME280;68821;59.134;37.894;2023-11-18T04:56:05;100880.56;;;-6.86;76.62
67517;BME280;68821;59.134;37.894;2023-11-18T04:58:37;100880.28;;;-6.89;76.66
67517;BME280;68821;59.134;37.894;2023-11-18T05:01:04;100886.31;;;-6.87;77.24
67517;BME280;68821;59.134;37.894;2023-11-18T05:03:30;100873.66;;;-6.89;76.63
67517;BME280;68821;59.134;37.894;2023-11-18T05:05:56;100880.13;;;-6.91;76.98
67517;BME280;68821;59.134;37.894;2023-11-18T05:08:25;100878.25;;;-6.93;75.95
67517;BME280;68821;59.134;37.894;2023-11-18T05:10:51;100883.81;;;-6.96;76.62
67517;BME280;68821;59.134;37.894;2023-11-18T05:13:18;100876.03;;;-6.99;76.14
67517;BME280;68821;59.134;37.894;2023-11-18T05:15:45;100882.50;;;-7.01;76.12
67517;BME280;68821;59.134;37.894;2023-11-18T05:18:12;100887.34;;;-7.02;76.65
67517;BME280;68821;59.134;37.894;2023-11-18T05:20:42;100886.47;;;-7.03;76.83
67517;BME280;68821;59.134;37.894;2023-11-18T05:23:08;100889.41;;;-6.98;76.60
67517;BME280;68821;59.134;37.894;2023-11-18T05:25:42;100897.06;;;-6.97;77.14
67517;BME280;68821;59.134;37.894;2023-11-18T05:28:11;100891.31;;;-6.96;76.37
67517;BME280;68821;59.134;37.894;2023-11-18T05:30:41;100895.44;;;-6.96;76.67
67517;BME280;68821;59.134;37.894;2023-11-18T05:33:08;100881.75;;;-7.00;76.93
67517;BME280;68821;59.134;37.894;2023-11-18T05:35:36;100887.66;;;-6.99;76.68
67517;BME280;68821;59.134;37.894;2023-11-18T05:38:02;100888.38;;;-7.00;76.55
67517;BME280;68821;59.134;37.894;2023-11-18T05:40:31;100886.03;;;-6.99;77.51
67517;BME280;68821;59.134;37.894;2023-11-18T05:42:58;100893.09;;;-6.95;76.82
67517;BME280;68821;59.134;37.894;2023-11-18T05:45:24;100882.06;;;-6.97;77.08
67517;BME280;68821;59.134;37.894;2023-11-18T05:47:54;100889.97;;;-6.92;76.42
67517;BME280;68821;59.134;37.894;2023-11-18T05:50:21;100882.22;;;-6.95;76.23
67517;BME280;68821;59.134;37.894;2023-11-18T05:52:47;100888.22;;;-6.93;77.30
67517;BME280;68821;59.134;37.894;2023-11-18T05:55:13;100893.22;;;-6.93;76.14
67517;BME280;68821;59.134;37.894;2023-11-18T05:57:39;100893.50;;;-6.90;76.12
67517;BME280;68821;59.134;37.894;2023-11-18T06:00:06;100901.75;;;-6.91;76.10
67517;BME280;68821;59.134;37.894;2023-11-18T06:02:34;100897.63;;;-6.91;76.51
67517;BME280;68821;59.134;37.894;2023-11-18T06:05:02;100886.47;;;-6.94;76.83
67517;BME280;68821;59.134;37.894;2023-11-18T06:07:29;100891.88;;;-6.90;77.02
67517;BME280;68821;59.134;37.894;2023-11-18T06:09:56;100891.88;;;-6.90;76.17
67517;BME280;68821;59.134;37.894;2023-11-18T06:12:23;100893.22;;;-6.93;76.86
67517;BME280;68821;59.134;37.894;2023-11-18T06:14:49;100893.97;;;-6.94;76.10
67517;BME280;68821;59.134;37.894;2023-11-18T06:17:17;100899.09;;;-6.93;75.77
67517;BME280;68821;59.134;37.894;2023-11-18T06:19:44;100894.97;;;-6.92;76.62
67517;BME280;68821;59.134;37.894;2023-11-18T06:22:10;100896.16;;;-6.89;75.99
67517;BME280;68821;59.134;37.894;2023-11-18T06:24:36;100890.72;;;-6.84;76.57
67517;BME280;68821;59.134;37.894;2023-11-18T06:27:05;100897.47;;;-6.83;76.24
67517;BME280;68821;59.134;37.894;2023-11-18T06:29:33;100890.84;;;-6.92;76.74
67517;BME280;68821;59.134;37.894;2023-11-18T06:31:59;100898.50;;;-6.90;76.72
67517;BME280;68821;59.134;37.894;2023-11-18T06:34:25;100901.00;;;-6.90;76.90
67517;BME280;68821;59.134;37.894;2023-11-18T06:36:53;100903.81;;;-6.87;76.97
67517;BME280;68821;59.134;37.894;2023-11-18T06:39:19;100910.72;;;-6.84;76.25
67517;BME280;68821;59.134;37.894;2023-11-18T06:41:47;100898.81;;;-6.87;77.14
67517;BME280;68821;59.134;37.894;2023-11-18T06:44:17;100908.06;;;-6.86;76.97
67517;BME280;68821;59.134;37.894;2023-11-18T06:46:50;100908.94;;;-6.85;76.31
67517;BME280;68821;59.134;37.894;2023-11-18T06:49:17;100896.44;;;-6.94;75.90
67517;BME280;68821;59.134;37.894;2023-11-18T06:51:43;100903.81;;;-6.87;75.39
67517;BME280;68821;59.134;37.894;2023-11-18T06:54:09;100909.53;;;-6.88;76.07
67517;BME280;68821;59.134;37.894;2023-11-18T06:56:43;100916.59;;;-6.93;75.66
67517;BME280;68821;59.134;37.894;2023-11-18T06:59:10;100909.56;;;-6.97;75.88
67517;BME280;68821;59.134;37.894;2023-11-18T07:01:38;100921.00;;;-6.99;76.19
67517;BME280;68821;59.134;37.894;2023-11-18T07:04:06;100918.66;;;-7.06;75.54
67517;BME280;68821;59.134;37.894;2023-11-18T07:06:36;100926.59;;;-7.10;75.10
67517;BME280;68821;59.134;37.894;2023-11-18T07:09:08;100925.88;;;-7.18;76.21
67517;BME280;68821;59.134;37.894;2023-11-18T07:11:41;100924.69;;;-7.21;76.50
67517;BME280;68821;59.134;37.894;2023-11-18T07:14:11;100925.59;;;-7.30;75.55
67517;BME280;68821;59.134;37.894;2023-11-18T07:16:41;100919.56;;;-7.32;75.55
67517;BME280;68821;59.134;37.894;2023-11-18T07:19:07;100917.94;;;-7.31;75.91
67517;BME280;68821;59.134;37.894;2023-11-18T07:21:34;100913.69;;;-7.32;75.95
67517;BME280;68821;59.134;37.894;2023-11-18T07:24:00;100921.47;;;-7.38;76.37
67517;BME280;68821;59.134;37.894;2023-11-18T07:26:28;100917.34;;;-7.37;76.48
67517;BME280;68821;59.134;37.894;2023-11-18T07:28:54;100927.31;;;-7.37;76.23
67517;BME280;68821;59.134;37.894;2023-11-18T07:31:20;100918.38;;;-7.44;75.93
67517;BME280;68821;59.134;37.894;2023-11-18T07:33:46;100926.16;;;-7.41;76.03
67517;BME280;68821;59.134;37.894;2023-11-18T07:36:17;100924.84;;;-7.37;77.09
67517;BME280;68821;59.134;37.894;2023-11-18T07:38:46;100917.50;;;-7.36;76.96
67517;BME280;68821;59.134;37.894;2023-11-18T07:41:12;100921.47;;;-7.29;77.22
67517;BME280;68821;59.134;37.894;2023-11-18T07:43:55;100919.84;;;-7.11;76.81
67517;BME280;68821;59.134;37.894;2023-11-18T07:46:25;100924.13;;;-7.01;76.83
67517;BME280;68821;59.134;37.894;2023-11-18T07:48:52;100921.16;;;-6.97;76.95
67517;BME280;68821;59.134;37.894;2023-11-18T07:51:19;100913.81;;;-6.87;76.75
67517;BME280;68821;59.134;37.894;2023-11-18T07:53:49;100918.50;;;-6.73;77.57
67517;BME280;68821;59.134;37.894;2023-11-18T07:56:15;100900.34;;;-6.61;77.65
67517;BME280;68821;59.134;37.894;2023-11-18T07:58:42;100920.59;;;-6.41;76.67
67517;BME280;68821;59.134;37.894;2023-11-18T08:01:12;100912.03;;;-6.34;76.95
67517;BME280;68821;59.134;37.894;2023-11-18T08:03:38;100914.41;;;-6.36;77.09
67517;BME280;68821;59.134;37.894;2023-11-18T08:06:07;100914.41;;;-6.36;77.33
67517;BME280;68821;59.134;37.894;2023-11-18T08:08:36;100919.53;;;-6.34;77.06
67517;BME280;68821;59.134;37.894;2023-11-18T08:11:05;100909.25;;;-6.37;76.48
67517;BME280;68821;59.134;37.894;2023-11-18T08:13:31;100913.66;;;-6.35;76.25
67517;BME280;68821;59.134;37.894;2023-11-18T08:15:58;100925.84;;;-6.29;77.28
67517;BME280;68821;59.134;37.894;2023-11-18T08:18:24;100922.34;;;-6.31;76.76
67517;BME280;68821;59.134;37.894;2023-11-18T08:20:50;100912.03;;;-6.34;76.07
67517;BME280;68821;59.134;37.894;2023-11-18T08:23:16;100924.53;;;-6.34;76.65
67517;BME280;68821;59.134;37.894;2023-11-18T08:25:42;100915.56;;;-6.32;77.23
67517;BME280;68821;59.134;37.894;2023-11-18T08:28:08;100917.59;;;-6.28;76.33
67517;BME280;68821;59.134;37.894;2023-11-18T08:30:37;100932.00;;;-6.17;76.98
67517;BME280;68821;59.134;37.894;2023-11-18T08:33:05;100923.16;;;-6.13;76.70
67517;BME280;68821;59.134;37.894;2023-11-18T08:35:37;100922.41;;;-6.12;76.02
67517;BME280;68821;59.134;37.894;2023-11-18T08:38:04;100916.66;;;-6.11;77.51
67517;BME280;68821;59.134;37.894;2023-11-18T08:40:33;100918.25;;;-6.03;76.66
67517;BME280;68821;59.134;37.894;2023-11-18T08:43:00;100922.56;;;-5.92;77.19
67517;BME280;68821;59.134;37.894;2023-11-18T08:45:28;100915.91;;;-5.82;77.39
67517;BME280;68821;59.134;37.894;2023-11-18T08:48:00;100917.47;;;-5.74;76.63
67517;BME280;68821;59.134;37.894;2023-11-18T08:50:35;100917.88;;;-5.70;76.71
67517;BME280;68821;59.134;37.894;2023-11-18T08:53:01;100924.53;;;-5.70;76.54
67517;BME280;68821;59.134;37.894;2023-11-18T08:55:31;100915.69;;;-5.75;76.30
67517;BME280;68821;59.134;37.894;2023-11-18T08:58:16;100912.16;;;-5.77;76.96
67517;BME280;68821;59.134;37.894;2023-11-18T09:00:57;100919.63;;;-5.69;76.51
67517;BME280;68821;59.134;37.894;2023-11-18T09:03:39;100916.53;;;-5.66;76.76
67517;BME280;68821;59.134;37.894;2023-11-18T09:06:10;100913.56;;;-5.62;76.65
67517;BME280;68821;59.134;37.894;2023-11-18T09:08:51;100907.47;;;-5.55;77.15
67517;BME280;68821;59.134;37.894;2023-11-18T09:11:22;100912.88;;;-5.51;76.11
67517;BME280;68821;59.134;37.894;2023-11-18T09:13:50;100906.59;;;-5.56;77.06
67517;BME280;68821;59.134;37.894;2023-11-18T09:16:26;100910.16;;;-5.62;76.35
67517;BME280;68821;59.134;37.894;2023-11-18T09:18:55;100910.63;;;-5.67;76.10
67517;BME280;68821;59.134;37.894;2023-11-18T09:21:24;100914.50;;;-5.70;76.58
67517;BME280;68821;59.134;37.894;2023-11-18T09:23:54;100914.22;;;-5.73;76.84
67517;BME280;68821;59.134;37.894;2023-11-18T09:26:22;100906.75;;;-5.82;76.98
67517;BME280;68821;59.134;37.894;2023-11-18T09:28:48;100912.50;;;-5.83;76.82
67517;BME280;68821;59.134;37.894;2023-11-18T09:31:15;100902.16;;;-5.77;77.29
67517;BME280;68821;59.134;37.894;2023-11-18T09:33:42;100908.03;;;-5.77;77.22
67517;BME280;68821;59.134;37.894;2023-11-18T09:36:18;100909.19;;;-5.73;77.14
67517;BME280;68821;59.134;37.894;2023-11-18T09:38:44;100912.56;;;-5.73;76.40
67517;BME280;68821;59.134;37.894;2023-11-18T09:41:12;100914.22;;;-5.73;76.87
67517;BME280;68821;59.134;37.894;2023-11-18T09:43:40;100913.19;;;-5.75;76.70
67517;BME280;68821;59.134;37.894;2023-11-18T09:46:23;100918.97;;;-5.76;77.22
67517;BME280;68821;59.134;37.894;2023-11-18T09:48:52;100917.03;;;-5.79;76.43
67517;BME280;68821;59.134;37.894;2023-11-18T09:51:22;100910.44;;;-5.78;76.12
67517;BME280;68821;59.134;37.894;2023-11-18T09:53:53;100920.28;;;-5.80;76.87
67517;BME280;68821;59.134;37.894;2023-11-18T09:59:32;100925.84;;;-5.74;76.87
67517;BME280;68821;59.134;37.894;2023-11-18T10:02:03;100919.50;;;-5.70;76.18
67517;BME280;68821;59.134;37.894;2023-11-18T10:04:39;100921.09;;;-5.71;76.82
67517;BME280;68821;59.134;37.894;2023-11-18T10:07:06;100925.38;;;-5.70;76.48
67517;BME280;68821;59.134;37.894;2023-11-18T10:09:36;100926.31;;;-5.78;75.83
67517;BME280;68821;59.134;37.894;2023-11-18T10:12:04;100921.94;;;-5.89;76.49
67517;BME280;68821;59.134;37.894;2023-11-18T10:14:42;100925.56;;;-5.96;76.30
67517;BME280;68821;59.134;37.894;2023-11-18T10:17:09;100919.69;;;-5.96;76.81
67517;BME280;68821;59.134;37.894;2023-11-18T10:19:57;100927.19;;;-5.96;77.17
67517;BME280;68821;59.134;37.894;2023-11-18T10:22:38;100911.63;;;-6.02;76.87
67517;BME280;68821;59.134;37.894;2023-11-18T10:25:04;100921.63;;;-6.02;77.28
67517;BME280;68821;59.134;37.894;2023-11-18T10:27:32;100926.03;;;-6.00;77.04
67517;BME280;68821;59.134;37.894;2023-11-18T10:30:04;100920.06;;;-5.92;76.41
67517;BME280;68821;59.134;37.894;2023-11-18T10:32:32;100914.59;;;-5.88;76.50
67517;BME280;68821;59.134;37.894;2023-11-18T10:35:01;100909.97;;;-5.83;76.86
67517;BME280;68821;59.134;37.894;2023-11-18T10:37:31;100907.31;;;-5.76;76.69
67517;BME280;68821;59.134;37.894;2023-11-18T10:39:57;100903.72;;;-5.69;77.01
67517;BME280;68821;59.134;37.894;2023-11-18T10:42:26;100897.84;;;-5.70;76.50
67517;BME280;68821;59.134;37.894;2023-11-18T10:44:57;100914.16;;;-5.64;76.26
67517;BME280;68821;59.134;37.894;2023-11-18T10:47:26;100909.13;;;-5.64;76.62
67517;BME280;68821;59.134;37.894;2023-11-18T10:49:56;100921.34;;;-5.59;76.40
67517;BME280;68821;59.134;37.894;2023-11-18T10:52:25;100897.78;;;-5.61;76.40
67517;BME280;68821;59.134;37.894;2023-11-18T10:54:55;100909.69;;;-5.58;76.27
67517;BME280;68821;59.134;37.894;2023-11-18T10:57:22;100903.25;;;-5.65;76.14
67517;BME280;68821;59.134;37.894;2023-11-18T11:00:02;100917.41;;;-5.66;76.49
67517;BME280;68821;59.134;37.894;2023-11-18T11:02:39;100921.25;;;-5.69;76.04
67517;BME280;68821;59.134;37.894;2023-11-18T11:05:07;100920.22;;;-5.71;76.21
67517;BME280;68821;59.134;37.894;2023-11-18T11:07:35;100917.19;;;-5.77;75.91
67517;BME280;68821;59.134;37.894;2023-11-18T11:10:03;100913.03;;;-5.77;76.73
67517;BME280;68821;59.134;37.894;2023-11-18T11:12:36;100911.84;;;-5.72;76.85
67517;BME280;68821;59.134;37.894;2023-11-18T11:15:12;100921.53;;;-5.66;76.45
67517;BME280;68821;59.134;37.894;2023-11-18T11:17:54;100929.63;;;-5.60;76.71
67517;BME280;68821;59.134;37.894;2023-11-18T11:20:31;100932.38;;;-5.57;76.57
67517;BME280;68821;59.134;37.894;2023-11-18T11:23:35;100918.97;;;-5.57;76.37
67517;BME280;68821;59.134;37.894;2023-11-18T11:28:42;100909.66;;;-5.50;75.99
67517;BME280;68821;59.134;37.894;2023-11-18T11:31:20;100913.03;;;-5.49;76.41
67517;BME280;68821;59.134;37.894;2023-11-18T11:34:02;100913.91;;;-5.49;76.98
67517;BME280;68821;59.134;37.894;2023-11-18T11:36:35;100921.72;;;-5.46;76.31
67517;BME280;68821;59.134;37.894;2023-11-18T11:39:04;100923.66;;;-5.52;75.80
67517;BME280;68821;59.134;37.894;2023-11-18T11:41:36;100927.50;;;-5.55;76.33
67517;BME280;68821;59.134;37.894;2023-11-18T11:44:03;100926.19;;;-5.60;76.28
67517;BME280;68821;59.134;37.894;2023-11-18T11:46:32;100920.06;;;-5.64;76.30
67517;BME280;68821;59.134;37.894;2023-11-18T11:49:01;100924.31;;;-5.63;76.61
67517;BME280;68821;59.134;37.894;2023-11-18T11:54:24;100919.59;;;-5.60;76.29
67517;BME280;68821;59.134;37.894;2023-11-18T11:56:57;100922.81;;;-5.61;76.60
67517;BME280;68821;59.134;37.894;2023-11-18T12:02:13;100924.72;;;-5.58;76.59
67517;BME280;68821;59.134;37.894;2023-11-18T12:04:45;100923.59;;;-5.62;76.35
67517;BME280;68821;59.134;37.894;2023-11-18T12:07:12;100931.09;;;-5.62;76.77
67517;BME280;68821;59.134;37.894;2023-11-18T12:09:41;100924.31;;;-5.63;76.31
67517;BME280;68821;59.134;37.894;2023-11-18T12:12:22;100932.59;;;-5.64;76.74
67517;BME280;68821;59.134;37.894;2023-11-18T12:14:53;100935.19;;;-5.62;76.85
67517;BME280;68821;59.134;37.894;2023-11-18T12:17:22;100934.19;;;-5.64;76.84
67517;BME280;68821;59.134;37.894;2023-11-18T12:19:50;100926.13;;;-5.71;77.21
67517;BME280;68821;59.134;37.894;2023-11-18T12:22:22;100939.53;;;-5.70;76.40
67517;BME280;68821;59.134;37.894;2023-11-18T12:33:04;100938.16;;;-5.67;76.41
67517;BME280;68821;59.134;37.894;2023-11-18T12:47:02;100933.59;;;-5.90;76.58
67517;BME280;68821;59.134;37.894;2023-11-18T12:49:44;100932.88;;;-5.89;76.38
67517;BME280;68821;59.134;37.894;2023-11-18T12:52:16;100929.59;;;-5.88;77.13
67517;BME280;68821;59.134;37.894;2023-11-18T12:54:45;100932.41;;;-5.84;77.06
67517;BME280;68821;59.134;37.894;2023-11-18T12:57:19;100935.31;;;-5.80;77.07
67517;BME280;68821;59.134;37.894;2023-11-18T12:59:49;100925.16;;;-5.81;76.84
67517;BME280;68821;59.134;37.894;2023-11-18T13:02:16;100927.94;;;-5.78;76.38
67517;BME280;68821;59.134;37.894;2023-11-18T13:04:49;100924.69;;;-5.77;76.51
67517;BME280;68821;59.134;37.894;2023-11-18T13:07:16;100944.09;;;-5.75;76.14
67517;BME280;68821;59.134;37.894;2023-11-18T13:09:50;100953.66;;;-5.71;76.50
67517;BME280;68821;59.134;37.894;2023-11-18T13:12:17;100947.59;;;-5.64;77.02
67517;BME280;68821;59.134;37.894;2023-11-18T13:14:46;100944.34;;;-5.63;76.21
67517;BME280;68821;59.134;37.894;2023-11-18T13:17:14;100948.66;;;-5.71;76.69
67517;BME280;68821;59.134;37.894;2023-11-18T13:19:44;100951.59;;;-5.66;76.41